Time;durP1;ratioP1;P1;durP2;ratioP2;P2;SDS_P1;SDS_P2;PMS_P1;PMS_P2;Temp;Humidity;BMP_temperature;BMP_pressure;BME280_temperature;BME280_humidity;BME280_pressure;Samples;Min_cycle;Max_cycle;Signal;HPM_P1;HPM_P2
2022/05/10 00:02:12;;;;;;;12.35;10.27;;;15.50;73.30;;;;;;4884178;28;95933;-62
2022/05/10 00:04:46;;;;;;;11.25;9.65;;;15.50;73.40;;;;;;4881713;28;98383;-63
2022/05/10 00:07:21;;;;;;;11.77;9.70;;;15.50;73.20;;;;;;4881604;28;95952;-63
2022/05/10 00:09:51;;;;;;;15.43;11.60;;;15.50;73.30;;;;;;4883428;28;95957;-64
2022/05/10 00:12:23;;;;;;;15.35;12.60;;;15.50;73.50;;;;;;4883704;28;97572;-59
2022/05/10 00:14:54;;;;;;;;;;;15.40;73.70;;;;;;4869444;28;96093;-60
2022/05/10 00:17:30;;;;;;;;;;;15.50;74.00;;;;;;4873356;28;96700;-65
2022/05/10 00:20:05;;;;;;;15.05;10.77;;;15.50;74.20;;;;;;4886290;28;96622;-61
2022/05/10 00:22:38;;;;;;;14.68;10.75;;;15.60;74.50;;;;;;4883222;28;95929;-56
2022/05/10 00:25:13;;;;;;;14.57;10.52;;;15.70;74.50;;;;;;4884416;28;96303;-50
2022/05/10 00:27:44;;;;;;;10.88;8.98;;;15.80;74.40;;;;;;4884189;28;95992;-62
2022/05/10 00:30:16;;;;;;;;;;;15.90;74.40;;;;;;4881351;28;95402;-62
2022/05/10 00:32:48;;;;;;;11.63;8.52;;;15.90;74.30;;;;;;4906038;28;102608;-65
2022/05/10 00:35:30;;;;;;;12.10;8.65;;;16.10;74.30;;;;;;4907849;28;96536;-60
2022/05/10 00:38:04;;;;;;;10.10;8.55;;;16.10;74.20;;;;;;4909999;28;98025;-59
2022/05/10 00:40:36;;;;;;;10.52;7.78;;;16.10;74.10;;;;;;4910277;28;95968;-60
2022/05/10 00:43:20;;;;;;;10.10;8.18;;;16.20;74.10;;;;;;4909659;28;97041;-59
2022/05/10 00:46:10;;;;;;;11.07;8.20;;;16.30;74.00;;;;;;4900642;28;95955;-58
2022/05/10 00:48:44;;;;;;;8.80;6.78;;;16.30;74.00;;;;;;4890323;28;96318;-59
2022/05/10 00:51:39;;;;;;;8.95;7.00;;;16.40;74.20;;;;;;4890366;28;96096;-58
2022/05/10 00:54:32;;;;;;;8.90;7.75;;;16.40;74.40;;;;;;4893357;28;95912;-56
2022/05/10 00:57:14;;;;;;;8.55;7.07;;;16.50;74.20;;;;;;4889197;28;95788;-58
2022/05/10 00:59:48;;;;;;;7.82;6.82;;;16.50;74.00;;;;;;4890544;28;95923;-58
2022/05/10 01:02:39;;;;;;;7.65;5.97;;;16.60;74.00;;;;;;4883526;28;97228;-60
2022/05/10 01:05:24;;;;;;;6.60;5.90;;;16.60;73.90;;;;;;4889259;28;96210;-55
2022/05/10 01:08:05;;;;;;;9.43;7.38;;;16.70;73.90;;;;;;4890494;28;96115;-55
2022/05/10 01:10:58;;;;;;;8.95;7.50;;;16.70;73.80;;;;;;4890702;28;96041;-58
2022/05/10 01:13:52;;;;;;;8.40;6.80;;;16.80;73.60;;;;;;4885809;28;95766;-56
2022/05/10 01:16:24;;;;;;;8.65;6.28;;;16.80;73.50;;;;;;4874173;28;96757;-56
2022/05/10 01:18:57;;;;;;;9.18;7.68;;;16.90;73.50;;;;;;4889503;28;95398;-58
2022/05/10 01:21:52;;;;;;;;;;;16.90;73.50;;;;;;4890224;28;96004;-54
2022/05/10 01:24:33;;;;;;;7.30;6.35;;;17.00;73.40;;;;;;4890016;28;95804;-56
2022/05/10 01:27:42;;;;;;;9.32;6.70;;;17.10;73.40;;;;;;4890116;28;95932;-53
2022/05/10 01:30:20;;;;;;;9.63;6.82;;;17.20;73.30;;;;;;4888966;28;95993;-62
2022/05/10 01:36:20;;;;;;;7.07;6.22;;;17.40;73.10;;;;;;4888891;28;95610;-65
2022/05/10 01:39:13;;;;;;;7.93;6.10;;;17.40;72.90;;;;;;4888314;28;95891;-59
2022/05/10 01:42:03;;;;;;;8.80;6.32;;;17.60;72.70;;;;;;4887797;28;95550;-61
2022/05/10 01:44:37;;;;;;;7.38;5.88;;;17.70;72.50;;;;;;4889417;28;95339;-60
2022/05/10 01:47:27;;;;;;;8.15;5.75;;;17.80;72.30;;;;;;4884221;28;96214;-57
2022/05/10 01:50:11;;;;;;;7.40;5.90;;;17.80;72.20;;;;;;4901793;28;97361;-60
2022/05/10 01:53:14;;;;;;;7.40;5.45;;;17.90;71.80;;;;;;4889165;28;95809;-61
2022/05/10 01:55:51;;;;;;;16.13;9.13;;;18.00;71.60;;;;;;4883161;28;96234;-60
2022/05/10 01:58:28;;;;;;;15.52;8.52;;;18.10;71.40;;;;;;4883541;28;96058;-57
2022/05/10 02:01:11;;;;;;;13.23;8.30;;;18.20;71.30;;;;;;4881266;28;97649;-59
2022/05/10 02:04:10;;;;;;;17.60;9.38;;;18.40;71.10;;;;;;4887420;28;95760;-56
2022/05/10 02:07:09;;;;;;;16.58;9.50;;;18.40;70.80;;;;;;4887263;28;96077;-59
2022/05/10 02:09:50;;;;;;;17.20;9.23;;;18.50;70.70;;;;;;4885372;28;96021;-56
2022/05/10 02:12:38;;;;;;;15.30;9.90;;;18.70;70.40;;;;;;4888470;28;96588;-57
2022/05/10 02:15:26;;;;;;;15.80;9.35;;;18.80;70.20;;;;;;4871958;28;96581;-58
2022/05/10 02:18:10;;;;;;;17.35;10.57;;;18.80;70.10;;;;;;4885944;28;95946;-61
2022/05/10 02:20:54;;;;;;;15.70;8.95;;;18.90;70.20;;;;;;4887374;28;96201;-55
2022/05/10 02:23:37;;;;;;;12.75;8.40;;;19.00;69.90;;;;;;4887994;28;96747;-66
2022/05/10 02:26:11;;;;;;;12.75;8.68;;;19.10;69.80;;;;;;4887658;28;95446;-64
2022/05/10 02:29:05;;;;;;;14.10;8.20;;;19.20;69.60;;;;;;4887040;28;97666;-59
2022/05/10 02:35:01;;;;;;;11.00;7.78;;;19.40;69.70;;;;;;4887788;28;96052;-60
2022/05/10 02:37:32;;;;;;;15.77;7.68;;;19.50;69.60;;;;;;4888062;28;96551;-62
2022/05/10 02:40:06;;;;;;;11.43;6.90;;;19.60;69.50;;;;;;4888882;28;95385;-61
2022/05/10 02:42:38;;;;;;;10.45;6.75;;;19.70;69.50;;;;;;4887483;28;95754;-63
2022/05/10 02:45:09;;;;;;;10.70;6.73;;;19.80;69.50;;;;;;4882597;28;98634;-58
2022/05/10 02:47:42;;;;;;;10.65;6.75;;;19.90;69.30;;;;;;4887956;28;95888;-62
2022/05/10 02:50:32;;;;;;;9.15;6.85;;;19.90;69.20;;;;;;4888262;28;95272;-58
2022/05/10 02:53:04;;;;;;;8.30;5.88;;;20.10;69.00;;;;;;4889453;28;96414;-63
2022/05/10 02:56:01;;;;;;;10.82;6.85;;;20.20;68.70;;;;;;4889128;28;96587;-55
2022/05/10 02:58:44;;;;;;;10.90;5.75;;;20.30;68.40;;;;;;4886775;28;95711;-56
2022/05/10 03:01:27;;;;;;;6.80;5.45;;;20.30;68.10;;;;;;4882737;28;96498;-55
2022/05/10 03:03:58;;;;;;;7.55;5.80;;;20.40;68.00;;;;;;4889216;28;95391;-55
2022/05/10 03:06:30;;;;;;;7.70;5.03;;;20.40;67.70;;;;;;4886571;28;96661;-56
2022/05/10 03:09:01;;;;;;;7.70;5.35;;;20.50;67.60;;;;;;4887485;28;95918;-56
2022/05/10 03:11:33;;;;;;;6.90;4.82;;;20.60;67.60;;;;;;4888285;28;95802;-55
2022/05/10 03:14:09;;;;;;;6.68;4.50;;;20.70;67.50;;;;;;4881674;28;95717;-56
2022/05/10 03:16:40;;;;;;;6.65;4.82;;;20.70;67.30;;;;;;4874850;28;96449;-57
2022/05/10 03:19:11;;;;;;;5.93;4.75;;;20.80;67.10;;;;;;4887266;28;95942;-57
2022/05/10 03:21:43;;;;;;;5.40;3.92;;;20.80;67.00;;;;;;4887453;28;95868;-52
2022/05/10 03:24:13;;;;;;;4.88;3.50;;;20.90;67.00;;;;;;4887049;28;96644;-57
2022/05/10 03:26:50;;;;;;;5.93;3.83;;;20.90;66.90;;;;;;4887705;28;96062;-62
2022/05/10 03:29:25;;;;;;;3.97;3.58;;;21.00;66.60;;;;;;4887587;28;95899;-55
2022/05/10 03:31:56;;;;;;;6.57;3.92;;;21.00;66.50;;;;;;4882688;28;95732;-63
2022/05/10 03:37:17;;;;;;;6.80;3.55;;;21.10;66.20;;;;;;4887084;28;97188;-56
2022/05/10 03:39:47;;;;;;;5.10;3.30;;;21.20;66.20;;;;;;4885900;28;95787;-59
2022/05/10 03:42:22;;;;;;;5.10;3.33;;;21.30;66.10;;;;;;4887451;28;95624;-62
2022/05/10 03:44:55;;;;;;;4.18;3.08;;;21.30;65.90;;;;;;4888469;28;96162;-63
2022/05/10 03:47:27;;;;;;;5.20;3.50;;;21.50;66.00;;;;;;4884010;28;98598;-65
2022/05/10 03:50:05;;;;;;;3.17;2.72;;;21.50;65.90;;;;;;4887804;28;96414;-66
2022/05/10 03:52:38;;;;;;;5.03;2.92;;;21.50;65.80;;;;;;4888442;28;97330;-62
2022/05/10 03:55:12;;;;;;;3.95;2.90;;;21.60;65.70;;;;;;4888514;28;96046;-61
2022/05/10 03:57:47;;;;;;;7.22;3.17;;;21.70;65.70;;;;;;4881363;28;96428;-68
2022/05/10 04:00:25;;;;;;;3.90;2.90;;;21.70;65.50;;;;;;4882407;28;96197;-59
2022/05/10 04:02:57;;;;;;;3.60;2.85;;;21.80;65.30;;;;;;4887216;28;95700;-53
2022/05/10 04:05:29;;;;;;;3.15;2.22;;;21.80;65.10;;;;;;4888240;28;95782;-56
2022/05/10 04:08:00;;;;;;;3.00;2.47;;;21.90;64.80;;;;;;4888253;28;97680;-58
2022/05/10 04:10:34;;;;;;;2.33;2.05;;;21.90;64.60;;;;;;4889862;28;95802;-59
2022/05/10 04:13:05;;;;;;;;;;;22.00;64.50;;;;;;4888883;28;96422;-52
2022/05/10 04:15:38;;;;;;;4.18;2.40;;;22.00;64.20;;;;;;4879609;28;96088;-60
2022/05/10 04:18:10;;;;;;;2.13;1.92;;;22.00;64.10;;;;;;4890785;28;95849;-60
2022/05/10 04:20:40;;;;;;;2.05;1.80;;;22.10;64.10;;;;;;4891031;28;96559;-59
2022/05/10 04:23:11;;;;;;;2.20;1.98;;;22.10;63.90;;;;;;4891122;28;95423;-51
2022/05/10 04:26:07;;;;;;;2.10;1.88;;;22.20;64.00;;;;;;4891056;28;95795;-56
2022/05/10 04:28:41;;;;;;;2.97;2.13;;;22.20;64.00;;;;;;4890283;28;97936;-62
2022/05/10 04:31:13;;;;;;;3.53;1.95;;;22.30;64.00;;;;;;4884262;28;96834;-67
2022/05/10 04:33:44;;;;;;;3.53;2.30;;;22.40;64.00;;;;;;4890742;28;95260;-61
2022/05/10 04:36:16;;;;;;;2.58;2.25;;;22.40;63.80;;;;;;4888217;28;95452;-65
2022/05/10 04:38:48;;;;;;;3.85;2.95;;;22.40;63.80;;;;;;4902658;28;96334;-55
2022/05/10 04:41:27;;;;;;;5.35;3.65;;;22.50;63.70;;;;;;4903697;28;96623;-58
2022/05/10 04:44:02;;;;;;;9.02;5.22;;;22.50;63.60;;;;;;4889845;28;96052;-54
2022/05/10 04:46:37;;;;;;;5.78;3.92;;;22.50;63.60;;;;;;4883723;28;96748;-55
2022/05/10 04:49:14;;;;;;;9.10;4.30;;;22.50;63.10;;;;;;4891631;28;96515;-61
2022/05/10 04:51:46;;;;;;;13.95;5.28;;;22.50;63.30;;;;;;4890927;28;95898;-57
2022/05/10 04:54:17;;;;;;;5.43;4.05;;;22.50;62.80;;;;;;4891270;28;95895;-57
2022/05/10 04:56:47;;;;;;;5.63;4.38;;;22.60;62.60;;;;;;4890710;28;96508;-58
2022/05/10 04:59:18;;;;;;;4.45;4.03;;;22.60;62.40;;;;;;4907956;28;97695;-64
2022/05/10 05:01:50;;;;;;;4.28;3.63;;;22.70;62.50;;;;;;4884948;28;97950;-64
2022/05/10 05:04:21;;;;;;;7.40;3.05;;;22.90;61.90;;;;;;4890513;28;95777;-61
2022/05/10 05:06:53;;;;;;;4.32;2.47;;;22.90;59.40;;;;;;4890667;28;95907;-63
2022/05/10 05:09:24;;;;;;;3.05;2.67;;;22.90;60.30;;;;;;4888879;28;96040;-60
2022/05/10 05:11:57;;;;;;;2.83;2.58;;;23.00;59.80;;;;;;4889889;28;96487;-63
2022/05/10 05:14:27;;;;;;;3.85;2.85;;;23.00;60.60;;;;;;4882152;28;96850;-62
2022/05/10 05:16:59;;;;;;;2.55;2.22;;;23.10;60.80;;;;;;4889943;28;96104;-62
2022/05/10 05:19:29;;;;;;;3.42;2.83;;;23.20;60.10;;;;;;4908826;28;96570;-63
2022/05/10 05:22:01;;;;;;;4.47;2.80;;;23.30;56.90;;;;;;4906794;28;96161;-63
2022/05/10 05:24:32;;;;;;;2.20;2.00;;;23.20;59.60;;;;;;4908586;28;95824;-62
2022/05/10 05:27:04;;;;;;;2.92;2.38;;;23.10;57.20;;;;;;4907939;28;96052;-52
2022/05/10 05:29:36;;;;;;;3.13;2.80;;;23.00;58.40;;;;;;4909346;28;96533;-63
2022/05/10 05:32:35;;;;;;;30.15;25.67;;;23.00;57.40;;;;;;4895532;28;95975;-55
2022/05/10 05:35:07;;;;;;;4.63;3.72;;;23.00;57.30;;;;;;4895686;28;95420;-43
2022/05/10 05:37:39;;;;;;;2.70;2.42;;;23.00;57.40;;;;;;4900125;28;95796;-53
2022/05/10 05:40:12;;;;;;;3.25;2.47;;;23.00;57.40;;;;;;4898972;28;98187;-52
2022/05/10 05:42:48;;;;;;;4.55;2.60;;;23.00;59.90;;;;;;4898168;28;95988;-52
2022/05/10 05:45:20;;;;;;;4.50;3.25;;;23.00;60.50;;;;;;4895538;28;95329;-53
2022/05/10 05:47:54;;;;;;;5.22;3.90;;;23.00;60.70;;;;;;4908337;28;96230;-50
2022/05/10 05:50:27;;;;;;;30.90;20.00;;;23.00;59.60;;;;;;4907770;28;95892;-49
2022/05/10 05:52:59;;;;;;;6.28;4.38;;;22.70;57.00;;;;;;4907886;28;96372;-59
2022/05/10 05:55:30;;;;;;;12.63;6.78;;;22.80;60.40;;;;;;4909821;28;96060;-53
2022/05/10 05:58:02;;;;;;;6.32;4.65;;;22.80;59.30;;;;;;4909853;28;96010;-59
2022/05/10 06:00:33;;;;;;;4.38;3.47;;;22.80;60.90;;;;;;4904519;28;96911;-61
2022/05/10 06:03:03;;;;;;;;;;;22.80;59.60;;;;;;4907983;28;96640;-61
2022/05/10 06:05:35;;;;;;;4.73;3.13;;;22.70;56.90;;;;;;4910322;28;96010;-57
2022/05/10 06:08:09;;;;;;;204.60;119.55;;;22.60;58.10;;;;;;4907398;28;95808;-55
2022/05/10 06:10:41;;;;;;;9.75;5.45;;;22.50;59.50;;;;;;4902853;28;96205;-58
2022/05/10 06:13:13;;;;;;;21.33;12.88;;;22.60;62.10;;;;;;4904815;28;95998;-58
2022/05/10 06:15:45;;;;;;;7.82;5.05;;;22.60;60.80;;;;;;4888885;28;97356;-53
2022/05/10 06:18:17;;;;;;;7.07;4.03;;;22.70;62.20;;;;;;4907784;28;95227;-54
2022/05/10 06:20:48;;;;;;;8.77;6.03;;;22.60;61.50;;;;;;4908382;28;95930;-56
2022/05/10 06:23:18;;;;;;;6.28;4.18;;;22.40;62.50;;;;;;4905099;28;95331;-62
2022/05/10 06:25:48;;;;;;;17.40;10.20;;;22.30;60.40;;;;;;4903995;28;96432;-60
2022/05/10 06:28:22;;;;;;;36.72;19.30;;;22.10;61.50;;;;;;4905773;28;95645;-55
2022/05/10 06:30:56;;;;;;;13.02;7.07;;;22.10;62.20;;;;;;4897828;28;97966;-49
2022/05/10 06:33:27;;;;;;;11.43;7.15;;;22.20;62.50;;;;;;4905734;28;96720;-44
2022/05/10 06:35:58;;;;;;;12.80;7.37;;;22.20;63.10;;;;;;4908195;28;95862;-52
2022/05/10 06:38:34;;;;;;;8.10;4.97;;;21.90;60.60;;;;;;4907851;28;95809;-52
2022/05/10 06:41:06;;;;;;;3.35;3.00;;;22.00;64.40;;;;;;4905747;28;95892;-50
2022/05/10 06:43:38;;;;;;;16.75;9.75;;;22.10;61.20;;;;;;4907399;28;95818;-47
2022/05/10 06:46:16;;;;;;;14.15;9.40;;;21.90;63.10;;;;;;4900359;28;95927;-49
2022/05/10 06:48:48;;;;;;;7.65;5.57;;;21.60;64.40;;;;;;4908570;28;96141;-53
2022/05/10 06:51:23;;;;;;;9.93;5.57;;;21.50;63.90;;;;;;4907842;28;95997;-47
2022/05/10 06:53:54;;;;;;;7.75;4.70;;;21.50;64.60;;;;;;4908340;28;96008;-55
2022/05/10 06:56:24;;;;;;;5.85;3.80;;;21.30;64.30;;;;;;4907850;28;95885;-56
2022/05/10 06:58:55;;;;;;;9.40;5.78;;;21.10;61.90;;;;;;4907829;28;95899;-51
2022/05/10 07:01:25;;;;;;;;;;;21.20;66.40;;;;;;4902793;28;95969;-48
2022/05/10 07:03:56;;;;;;;5.97;3.70;;;21.30;64.40;;;;;;4908716;28;96583;-50
2022/05/10 07:06:27;;;;;;;3.45;2.95;;;21.20;63.40;;;;;;4909491;28;95831;-48
2022/05/10 07:08:59;;;;;;;3.67;3.25;;;21.00;63.30;;;;;;4908029;28;96204;-43
2022/05/10 07:11:32;;;;;;;2.80;2.15;;;20.80;64.00;;;;;;4906221;28;95952;-44
2022/05/10 07:14:03;;;;;;;3.40;2.30;;;20.20;64.10;;;;;;4898380;28;96026;-43
2022/05/10 07:16:34;;;;;;;4.32;2.20;;;19.10;67.90;;;;;;4894361;28;95911;-44
2022/05/10 07:19:07;;;;;;;3.33;2.00;;;18.60;70.10;;;;;;4907310;28;96561;-43
2022/05/10 07:21:38;;;;;;;3.22;2.20;;;18.40;70.70;;;;;;4907440;28;95936;-44
2022/05/10 07:24:08;;;;;;;3.58;2.17;;;18.30;71.60;;;;;;4906912;28;95956;-45
2022/05/10 07:26:43;;;;;;;3.83;2.42;;;18.10;71.80;;;;;;4907497;28;96002;-43
2022/05/10 07:29:17;;;;;;;2.33;1.92;;;18.00;71.80;;;;;;4907361;28;95908;-43
2022/05/10 07:31:47;;;;;;;3.78;2.90;;;17.80;71.80;;;;;;4905176;28;97437;-43
2022/05/10 07:34:18;;;;;;;3.70;2.08;;;17.60;72.80;;;;;;4907528;28;95983;-43
2022/05/10 07:36:49;;;;;;;3.17;2.70;;;17.40;73.30;;;;;;4907211;28;95564;-43
2022/05/10 07:39:21;;;;;;;3.58;2.38;;;17.20;74.60;;;;;;4919166;28;95932;-43
2022/05/10 07:41:53;;;;;;;13.27;10.82;;;17.10;74.70;;;;;;4906284;28;96797;-45
2022/05/10 07:44:23;;;;;;;31.58;22.90;;;17.20;74.50;;;;;;4908173;28;96032;-47
2022/05/10 07:46:54;;;;;;;32.80;22.65;;;17.10;75.10;;;;;;4905848;28;95355;-45
2022/05/10 07:49:27;;;;;;;11.40;9.27;;;17.10;75.10;;;;;;4909745;28;96192;-44
2022/05/10 07:52:00;;;;;;;10.18;7.82;;;17.10;74.90;;;;;;4910341;28;96524;-44
2022/05/10 07:54:32;;;;;;;13.20;8.50;;;17.20;74.80;;;;;;4912036;28;95906;-44
2022/05/10 07:57:05;;;;;;;11.77;7.53;;;17.00;74.90;;;;;;4911648;28;95501;-44
2022/05/10 07:59:36;;;;;;;11.23;7.93;;;17.10;75.40;;;;;;4912877;28;96118;-44
2022/05/10 08:02:07;;;;;;;;;;;16.80;75.20;;;;;;4904751;28;96013;-45
2022/05/10 08:04:38;;;;;;;10.68;7.43;;;16.70;75.90;;;;;;4912493;28;95866;-46
2022/05/10 08:07:09;;;;;;;12.20;7.10;;;16.50;76.30;;;;;;4908751;28;95966;-44
2022/05/10 08:09:47;;;;;;;10.07;6.40;;;16.30;77.30;;;;;;4908148;28;96354;-43
2022/05/10 08:12:17;;;;;;;9.43;6.95;;;16.10;78.10;;;;;;4910112;28;97620;-43
2022/05/10 08:14:48;;;;;;;10.55;7.00;;;15.90;79.30;;;;;;4899336;28;95767;-45
2022/05/10 08:17:19;;;;;;;13.35;8.15;;;15.70;79.20;;;;;;4899126;28;95991;-43
2022/05/10 08:19:51;;;;;;;11.20;7.57;;;15.70;79.30;;;;;;4908937;28;96753;-44
2022/05/10 08:22:23;;;;;;;11.52;7.85;;;15.60;79.60;;;;;;4909303;28;97220;-42
2022/05/10 08:24:54;;;;;;;21.60;14.63;;;15.60;78.90;;;;;;4907943;28;95862;-43
2022/05/10 08:27:25;;;;;;;22.80;16.38;;;15.40;79.80;;;;;;4908959;28;96081;-43
2022/05/10 08:29:56;;;;;;;22.17;16.75;;;15.50;80.70;;;;;;4909240;28;95834;-44
2022/05/10 08:32:29;;;;;;;18.23;13.70;;;15.40;80.30;;;;;;4903987;28;95968;-43
2022/05/10 08:35:14;;;;;;;16.45;12.07;;;15.30;80.30;;;;;;4908682;28;96260;-43
2022/05/10 08:37:45;;;;;;;13.77;9.60;;;15.30;79.90;;;;;;4908817;28;96126;-44
2022/05/10 08:40:30;;;;;;;15.73;10.35;;;15.20;80.60;;;;;;4908517;28;96682;-43
2022/05/10 08:43:08;;;;;;;14.48;9.75;;;15.30;80.70;;;;;;4906847;28;96098;-43
2022/05/10 08:45:44;;;;;;;16.58;10.00;;;15.30;80.60;;;;;;4905957;28;96695;-43
2022/05/10 08:48:15;;;;;;;13.20;9.32;;;15.40;81.20;;;;;;4910210;28;95766;-41
2022/05/10 08:50:49;;;;;;;12.40;9.18;;;15.30;81.00;;;;;;4910832;28;95943;-43
2022/05/10 08:53:21;;;;;;;16.58;10.23;;;15.20;80.60;;;;;;4910114;28;95910;-44
2022/05/10 08:56:26;;;;;;;19.15;11.80;;;15.20;77.20;;;;;;4907926;28;95809;-43
2022/05/10 08:59:07;;;;;;;21.40;11.55;;;14.80;81.90;;;;;;4904886;28;95945;-43
2022/05/10 09:02:22;;;;;;;20.17;12.13;;;14.50;82.70;;;;;;4911037;28;96025;-43
2022/05/10 09:05:01;;;;;;;15.20;12.18;;;14.40;83.30;;;;;;4904787;28;96496;-43
2022/05/10 09:07:49;;;;;;;18.25;12.40;;;14.40;83.20;;;;;;4905576;28;96279;-43
2022/05/10 09:10:33;;;;;;;16.25;11.20;;;14.30;83.30;;;;;;4905619;28;96178;-43
2022/05/10 09:13:10;;;;;;;17.13;10.80;;;14.30;83.50;;;;;;4901640;28;95789;-45
2022/05/10 09:16:00;;;;;;;23.73;16.55;;;14.10;84.20;;;;;;4880383;28;98786;-44
2022/05/10 09:18:42;;;;;;;29.27;15.68;;;14.00;85.10;;;;;;4913922;28;96499;-43
2022/05/10 09:21:20;;;;;;;27.52;17.23;;;14.00;85.60;;;;;;4911216;28;96571;-44
2022/05/10 09:24:08;;;;;;;26.60;16.02;;;13.90;85.80;;;;;;4911562;28;95969;-43
2022/05/10 09:26:45;;;;;;;24.10;16.98;;;14.10;85.60;;;;;;4910762;28;96596;-43
2022/05/10 09:29:34;;;;;;;22.45;16.58;;;14.50;84.70;;;;;;4914298;28;95805;-45
2022/05/10 09:35:24;;;;;;;19.83;12.77;;;14.40;83.80;;;;;;4882974;28;96530;-44
2022/05/10 09:38:09;;;;;;;17.48;11.30;;;14.10;84.10;;;;;;4881366;28;96166;-44
2022/05/10 09:40:42;;;;;;;17.33;11.18;;;13.80;85.30;;;;;;4886686;28;95949;-44
2022/05/10 09:43:17;;;;;;;15.95;10.98;;;13.90;86.00;;;;;;4885849;28;95737;-46
2022/05/10 09:46:09;;;;;;;15.57;12.00;;;14.10;85.20;;;;;;4883422;28;95853;-46
2022/05/10 09:48:42;;;;;;;13.80;9.25;;;14.20;85.10;;;;;;4886055;28;95972;-44
2022/05/10 09:51:43;;;;;;;14.35;10.55;;;14.10;85.10;;;;;;4893522;28;96596;-44
2022/05/10 09:54:38;;;;;;;12.73;10.55;;;14.10;85.10;;;;;;4889814;28;96520;-44
2022/05/10 09:57:31;;;;;;;14.45;10.18;;;14.00;83.80;;;;;;4902280;28;96100;-46
2022/05/10 10:00:01;;;;;;;17.88;11.50;;;14.00;84.00;;;;;;4888497;28;96785;-45
2022/05/10 10:02:43;;;;;;;21.55;13.65;;;13.80;84.40;;;;;;4884946;28;96072;-44
2022/05/10 10:05:33;;;;;;;21.70;13.48;;;13.80;84.80;;;;;;4892577;28;95847;-44
2022/05/10 10:08:07;;;;;;;23.75;15.32;;;13.70;84.90;;;;;;4884436;28;95888;-43
2022/05/10 10:10:38;;;;;;;20.25;13.52;;;13.70;84.90;;;;;;4878671;28;96447;-43
2022/05/10 10:13:36;;;;;;;17.15;12.15;;;13.80;84.50;;;;;;4877522;28;95562;-43
2022/05/10 10:16:31;;;;;;;15.93;12.18;;;13.50;84.10;;;;;;4881704;28;99488;-44
2022/05/10 10:19:06;;;;;;;18.23;12.80;;;13.30;85.70;;;;;;4892008;28;95778;-45
2022/05/10 10:21:56;;;;;;;21.65;13.30;;;13.40;86.10;;;;;;4891059;28;96643;-43
2022/05/10 10:24:39;;;;;;;17.73;12.75;;;13.50;85.20;;;;;;4892269;28;95876;-44
2022/05/10 10:27:21;;;;;;;17.60;11.82;;;13.40;85.70;;;;;;4892355;28;95959;-43
2022/05/10 10:30:19;;;;;;;16.20;11.70;;;13.30;85.40;;;;;;4893077;28;95819;-43
2022/05/10 10:32:56;;;;;;;14.30;11.55;;;13.40;85.40;;;;;;4891093;28;95920;-43
2022/05/10 10:35:29;;;;;;;16.00;11.88;;;13.50;86.10;;;;;;4890865;28;97943;-44
2022/05/10 10:38:22;;;;;;;15.50;11.82;;;13.60;85.30;;;;;;4890062;28;95966;-43
2022/05/10 10:41:01;;;;;;;15.18;10.90;;;13.60;84.20;;;;;;4879574;28;95440;-45
2022/05/10 10:44:03;;;;;;;12.90;9.95;;;13.20;84.70;;;;;;4886975;28;96523;-43
2022/05/10 10:46:47;;;;;;;13.57;8.63;;;12.80;87.00;;;;;;4884310;28;95867;-43
2022/05/10 10:49:32;;;;;;;12.20;8.95;;;12.70;87.40;;;;;;4888513;28;96684;-44
2022/05/10 10:52:03;;;;;;;20.25;13.70;;;12.70;88.40;;;;;;4891947;28;95455;-45
2022/05/10 10:54:36;;;;;;;22.77;14.73;;;12.80;89.10;;;;;;4890729;28;96515;-43
2022/05/10 10:57:29;;;;;;;13.90;9.05;;;13.00;89.00;;;;;;4890586;28;95466;-43
2022/05/10 11:00:12;;;;;;;15.48;12.43;;;13.20;87.80;;;;;;4893011;28;95410;-43
2022/05/10 11:03:17;;;;;;;13.75;11.50;;;13.20;87.80;;;;;;4882707;28;96068;-43
2022/05/10 11:06:09;;;;;;;13.38;10.13;;;13.30;87.70;;;;;;4890076;28;95974;-43
2022/05/10 11:09:01;;;;;;;16.95;11.10;;;13.20;87.50;;;;;;4891325;28;95330;-43
2022/05/10 11:12:13;;;;;;;14.77;9.07;;;13.50;88.10;;;;;;4901979;28;95969;-52
2022/05/10 11:15:09;;;;;;;12.77;8.93;;;14.00;91.00;;;;;;4875306;28;96025;-49
2022/05/10 11:18:08;;;;;;;10.90;9.23;;;15.00;90.40;;;;;;4900384;28;96694;-50
2022/05/10 11:21:01;;;;;;;12.00;8.52;;;15.50;88.80;;;;;;4919515;28;96040;-50
2022/05/10 11:23:47;;;;;;;11.55;8.07;;;15.80;87.90;;;;;;4902915;28;95899;-54
2022/05/10 11:26:41;;;;;;;11.43;9.18;;;16.10;87.00;;;;;;4905629;28;95772;-55
2022/05/10 11:29:35;;;;;;;8.55;7.63;;;16.30;86.40;;;;;;4905654;28;96475;-55
2022/05/10 11:32:09;;;;;;;10.38;8.43;;;16.30;86.20;;;;;;4894811;28;95689;-53
2022/05/10 11:35:00;;;;;;;13.38;9.13;;;16.50;86.00;;;;;;4899753;28;95575;-55
2022/05/10 11:37:42;;;;;;;11.57;7.82;;;16.60;85.70;;;;;;4898563;28;95738;-53
2022/05/10 11:40:23;;;;;;;10.52;8.10;;;16.70;85.40;;;;;;4910130;28;96067;-55
2022/05/10 11:43:36;;;;;;;10.38;7.50;;;16.80;85.00;;;;;;4908347;28;97231;-53
2022/05/10 11:46:45;;;;;;;9.02;7.82;;;16.90;84.50;;;;;;4891342;28;97968;-55
2022/05/10 11:49:35;;;;;;;9.43;7.82;;;17.00;83.90;;;;;;4905833;28;95718;-56
2022/05/10 11:52:45;;;;;;;10.70;7.70;;;17.10;83.90;;;;;;4911022;28;95906;-54
2022/05/10 11:55:47;;;;;;;10.05;7.22;;;17.20;83.50;;;;;;4909352;28;95798;-55
2022/05/10 11:58:24;;;;;;;10.15;7.57;;;17.40;82.90;;;;;;4903043;28;95595;-54
2022/05/10 12:00:57;;;;;;;9.38;7.40;;;17.40;81.10;;;;;;4899969;28;95764;-55
2022/05/10 12:03:45;;;;;;;8.85;6.65;;;17.50;81.00;;;;;;4907588;28;96527;-54
2022/05/10 12:06:31;;;;;;;8.70;6.22;;;17.60;80.10;;;;;;4910860;28;95967;-53
2022/05/10 12:09:06;;;;;;;8.63;6.63;;;17.60;79.60;;;;;;4907625;28;95619;-53
2022/05/10 12:11:43;;;;;;;9.60;6.90;;;17.60;78.90;;;;;;4911334;28;95851;-52
2022/05/10 12:21:20;;;;;;;7.32;6.10;;;17.80;78.00;;;;;;4877414;28;95596;-54
2022/05/10 12:24:25;;;;;;;10.13;7.00;;;17.80;77.50;;;;;;4878235;28;96068;-55
2022/05/10 12:27:20;;;;;;;10.75;7.28;;;17.80;77.10;;;;;;4878098;28;96660;-58
2022/05/10 12:29:52;;;;;;;8.57;6.53;;;17.80;76.70;;;;;;4874817;28;95788;-57
2022/05/10 12:32:42;;;;;;;8.40;7.45;;;17.90;76.50;;;;;;4880397;28;95850;-54
2022/05/10 12:35:39;;;;;;;9.70;7.30;;;17.90;76.40;;;;;;4883293;28;95450;-56
2022/05/10 12:38:33;;;;;;;9.43;7.25;;;17.90;75.90;;;;;;4884743;28;95845;-55
2022/05/10 12:41:18;;;;;;;7.88;6.72;;;17.90;75.70;;;;;;4883931;28;95894;-54
2022/05/10 12:44:09;;;;;;;9.48;7.10;;;17.90;75.50;;;;;;4880804;28;95975;-56
2022/05/10 12:47:18;;;;;;;9.60;7.32;;;17.90;75.10;;;;;;4876830;28;97239;-56
2022/05/10 12:50:07;;;;;;;8.55;6.70;;;18.00;75.00;;;;;;4879795;28;95867;-55
2022/05/10 12:52:47;;;;;;;8.95;7.25;;;18.00;75.00;;;;;;4880309;28;95906;-55
2022/05/10 12:55:35;;;;;;;9.85;6.40;;;18.00;74.60;;;;;;4883901;28;95859;-56
2022/05/10 12:58:39;;;;;;;8.95;6.47;;;18.00;74.50;;;;;;4880686;28;95868;-52
2022/05/10 13:01:13;;;;;;;9.27;6.80;;;18.00;74.30;;;;;;4875518;28;96524;-55
2022/05/10 13:03:51;;;;;;;9.40;6.75;;;18.00;74.30;;;;;;4883005;28;95603;-55
2022/05/10 13:06:46;;;;;;;8.80;6.75;;;18.00;74.00;;;;;;4881322;28;95938;-55
2022/05/10 13:09:33;;;;;;;8.55;6.53;;;18.00;73.90;;;;;;4878457;28;95419;-52
2022/05/10 13:12:20;;;;;;;8.10;6.53;;;18.10;73.80;;;;;;4911703;28;96141;-55
2022/05/10 13:15:21;;;;;;;9.25;6.97;;;18.00;71.20;;;;;;4876556;28;96027;-53
2022/05/10 13:17:58;;;;;;;7.28;6.55;;;18.10;73.60;;;;;;4880782;28;95614;-55
2022/05/10 13:20:32;;;;;;;9.18;6.93;;;18.00;73.40;;;;;;4912399;28;95842;-55
2022/05/10 13:23:06;;;;;;;7.60;6.47;;;18.00;73.40;;;;;;4884987;28;96772;-54
2022/05/10 13:25:43;;;;;;;6.88;5.95;;;18.10;73.30;;;;;;4879308;28;95860;-54
2022/05/10 13:28:21;;;;;;;6.60;5.65;;;18.10;73.30;;;;;;4879961;28;95321;-54
2022/05/10 13:30:55;;;;;;;9.07;6.68;;;18.00;73.20;;;;;;4872855;28;95726;-54
2022/05/10 13:33:35;;;;;;;7.72;6.70;;;18.10;73.00;;;;;;4884259;28;95897;-54
2022/05/10 13:36:12;;;;;;;8.40;7.03;;;18.00;72.90;;;;;;4884697;28;95729;-53
2022/05/10 13:38:54;;;;;;;7.95;6.47;;;18.00;72.90;;;;;;4881513;28;95292;-54
2022/05/10 13:41:38;;;;;;;7.72;6.55;;;18.00;72.90;;;;;;4875256;28;95718;-55
2022/05/10 13:44:23;;;;;;;7.70;6.30;;;18.10;72.80;;;;;;4891130;28;96708;-53
2022/05/10 13:47:02;;;;;;;6.85;6.07;;;18.10;72.80;;;;;;4871904;28;95409;-55
2022/05/10 13:49:43;;;;;;;8.50;6.80;;;18.00;72.80;;;;;;4907652;28;95429;-54
2022/05/10 13:52:34;;;;;;;9.90;6.80;;;18.00;72.70;;;;;;4880028;28;97127;-53
2022/05/10 13:55:11;;;;;;;7.82;7.03;;;18.10;73.30;;;;;;4880821;28;96178;-58
2022/05/10 13:57:52;;;;;;;8.73;6.68;;;18.20;74.70;;;;;;4886869;28;95864;-54
2022/05/10 14:00:27;;;;;;;9.23;7.90;;;18.20;74.80;;;;;;4879907;28;95787;-52
2022/05/10 14:02:58;;;;;;;9.90;7.18;;;18.30;74.90;;;;;;4922444;28;96690;-52
2022/05/10 14:05:31;;;;;;;10.18;7.78;;;18.40;75.10;;;;;;4891793;28;96094;-54